Time;durP1;ratioP1;P1;durP2;ratioP2;P2;SDS_P1;SDS_P2;PMS_P1;PMS_P2;Temp;Humidity;BMP_temperature;BMP_pressure;BME280_temperature;BME280_humidity;BME280_pressure;Samples;Min_cycle;Max_cycle;Signal;HPM_P1;HPM_P2
2023/06/15 00:01:50;;;;;;;2.60;2.40;;;17.40;99.90;;;;;;5055399;28;20209;-77
2023/06/15 00:04:18;;;;;;;4.70;2.78;;;17.40;99.90;;;;;;5052886;28;20199;-76
2023/06/15 00:06:45;;;;;;;4.40;3.08;;;17.40;99.90;;;;;;5059400;28;20777;-75
2023/06/15 00:09:13;;;;;;;3.28;2.97;;;17.40;99.90;;;;;;5054852;28;20228;-76
2023/06/15 00:11:42;;;;;;;3.20;2.90;;;17.30;99.90;;;;;;5056494;28;20301;-76
2023/06/15 00:14:08;;;;;;;4.07;2.67;;;17.20;99.90;;;;;;5055500;28;20268;-76
2023/06/15 00:16:41;;;;;;;3.85;2.33;;;17.10;99.90;;;;;;5054976;28;20694;-76
2023/06/15 00:19:08;;;;;;;2.45;2.25;;;17.10;99.90;;;;;;5054334;28;20677;-77
2023/06/15 00:21:41;;;;;;;2.70;2.50;;;17.10;99.90;;;;;;5056087;28;20267;-76
2023/06/15 00:24:09;;;;;;;2.40;2.20;;;17.10;99.90;;;;;;5058810;28;20190;-77
2023/06/15 00:26:36;;;;;;;2.50;2.30;;;17.20;99.90;;;;;;5056624;28;20222;-77
2023/06/15 00:29:03;;;;;;;3.90;2.30;;;17.20;99.90;;;;;;5057716;28;20282;-77
2023/06/15 00:31:30;;;;;;;2.78;2.58;;;17.30;99.90;;;;;;5056506;28;20280;-76
2023/06/15 00:33:57;;;;;;;2.42;2.33;;;17.20;99.90;;;;;;5054265;28;20894;-76
2023/06/15 00:36:24;;;;;;;2.75;2.15;;;17.20;99.90;;;;;;5053064;28;20361;-76
2023/06/15 00:38:52;;;;;;;2.30;2.17;;;17.20;99.90;;;;;;5058291;28;20198;-76
2023/06/15 00:41:19;;;;;;;2.30;2.20;;;17.20;99.90;;;;;;5056124;28;20255;-76
2023/06/15 00:43:46;;;;;;;2.60;2.40;;;17.20;99.90;;;;;;5061195;28;20264;-76
2023/06/15 00:46:13;;;;;;;2.10;2.00;;;17.20;99.90;;;;;;5054605;28;20712;-76
2023/06/15 00:48:41;;;;;;;2.40;2.20;;;17.20;99.90;;;;;;5057616;28;20664;-76
2023/06/15 00:51:08;;;;;;;2.28;2.17;;;17.10;99.90;;;;;;5055228;28;20285;-77
2023/06/15 00:53:37;;;;;;;1.85;1.75;;;17.10;99.90;;;;;;5054049;28;20252;-77
2023/06/15 00:56:06;;;;;;;2.28;2.10;;;17.00;99.90;;;;;;5055428;28;20203;-77
2023/06/15 00:58:34;;;;;;;2.33;2.13;;;16.90;99.90;;;;;;5059167;28;20227;-76
2023/06/15 01:01:03;;;;;;;2.28;2.05;;;16.90;99.90;;;;;;5053712;28;20802;-76
2023/06/15 01:03:30;;;;;;;1.80;1.70;;;16.80;99.90;;;;;;5055487;28;20225;-76
2023/06/15 01:05:58;;;;;;;2.00;1.90;;;16.70;99.90;;;;;;5055404;28;20225;-76
2023/06/15 01:08:27;;;;;;;2.17;2.08;;;16.70;99.90;;;;;;5055140;28;20226;-76
2023/06/15 01:10:57;;;;;;;1.77;1.67;;;16.60;99.90;;;;;;5054820;28;20295;-76
2023/06/15 01:13:26;;;;;;;3.00;1.88;;;16.60;99.90;;;;;;5054566;28;20208;-76
2023/06/15 01:15:58;;;;;;;1.67;1.58;;;16.60;99.90;;;;;;5055187;28;20696;-76
2023/06/15 01:18:29;;;;;;;1.90;1.80;;;16.60;99.90;;;;;;5055411;28;20245;-76
2023/06/15 01:20:57;;;;;;;1.80;1.70;;;16.60;99.90;;;;;;5052262;28;20209;-76
2023/06/15 01:23:33;;;;;;;1.80;1.70;;;16.60;99.90;;;;;;5052872;28;20236;-76
2023/06/15 01:26:06;;;;;;;1.63;1.52;;;16.60;99.90;;;;;;5053688;28;20194;-77
2023/06/15 01:28:35;;;;;;;1.63;1.52;;;16.50;99.90;;;;;;5049671;28;20599;-76
2023/06/15 01:31:02;;;;;;;1.80;1.70;;;16.50;99.90;;;;;;5053146;28;20198;-77
2023/06/15 01:33:31;;;;;;;1.75;1.65;;;16.50;99.90;;;;;;5070098;28;20217;-77
2023/06/15 01:35:58;;;;;;;1.73;1.63;;;16.50;99.90;;;;;;5057794;28;20525;-76
2023/06/15 01:38:29;;;;;;;1.90;1.80;;;16.50;99.90;;;;;;5058568;28;20237;-76
2023/06/15 01:40:57;;;;;;;1.83;1.73;;;16.40;99.90;;;;;;5054202;28;20194;-79
2023/06/15 01:43:31;;;;;;;1.83;1.73;;;16.40;99.90;;;;;;5058141;28;20222;-76
2023/06/15 01:45:59;;;;;;;2.13;2.03;;;16.40;99.90;;;;;;5057115;28;20281;-77
2023/06/15 01:48:27;;;;;;;4.45;2.05;;;16.40;99.90;;;;;;5055285;28;20546;-77
2023/06/15 01:50:55;;;;;;;2.00;1.90;;;16.40;99.90;;;;;;5056091;28;20213;-77
2023/06/15 01:53:22;;;;;;;2.03;1.92;;;16.40;99.90;;;;;;5056111;28;20784;-78
2023/06/15 01:55:49;;;;;;;1.83;1.73;;;16.40;99.90;;;;;;5053932;28;20296;-77
2023/06/15 01:58:16;;;;;;;2.65;2.45;;;16.40;99.90;;;;;;5054673;28;20305;-76
2023/06/15 02:00:46;;;;;;;2.90;2.13;;;16.40;99.90;;;;;;5051278;28;20205;-78
2023/06/15 02:03:13;;;;;;;3.28;2.25;;;16.40;99.90;;;;;;5052777;28;20293;-77
2023/06/15 02:05:40;;;;;;;2.38;2.10;;;16.40;99.90;;;;;;5052434;28;20289;-77
2023/06/15 02:08:08;;;;;;;2.55;2.13;;;16.40;99.90;;;;;;5052919;28;20307;-77
2023/06/15 02:10:35;;;;;;;2.05;1.90;;;16.40;99.90;;;;;;5055377;28;20641;-77
2023/06/15 02:13:02;;;;;;;1.85;1.75;;;16.40;99.90;;;;;;5055321;28;20203;-77
2023/06/15 02:15:29;;;;;;;2.30;2.20;;;16.40;99.90;;;;;;5055765;28;20219;-77
2023/06/15 02:18:00;;;;;;;2.30;2.20;;;16.40;99.90;;;;;;5052342;28;20226;-76
2023/06/15 02:20:28;;;;;;;2.22;2.08;;;16.40;99.90;;;;;;5057561;28;20206;-77
2023/06/15 02:22:57;;;;;;;2.00;1.90;;;16.30;99.90;;;;;;5057516;28;20199;-77
2023/06/15 02:25:24;;;;;;;2.40;2.25;;;16.30;99.90;;;;;;5055194;28;20560;-76
2023/06/15 02:27:51;;;;;;;3.53;2.10;;;16.20;99.90;;;;;;5057583;28;20805;-77
2023/06/15 02:30:19;;;;;;;2.17;2.08;;;16.10;99.90;;;;;;5057618;28;20194;-76
2023/06/15 02:32:48;;;;;;;2.72;2.53;;;16.10;99.90;;;;;;5059522;28;20199;-77
2023/06/15 02:35:16;;;;;;;2.20;2.10;;;16.10;99.90;;;;;;5057804;28;20211;-77
2023/06/15 02:37:43;;;;;;;2.10;2.00;;;16.10;99.90;;;;;;5056720;28;20645;-79
2023/06/15 02:40:11;;;;;;;2.00;1.90;;;16.00;99.90;;;;;;5056507;28;20230;-76
2023/06/15 02:42:39;;;;;;;2.20;2.10;;;16.00;99.90;;;;;;5056843;28;20673;-76
2023/06/15 02:45:08;;;;;;;1.90;1.80;;;16.00;99.90;;;;;;5058289;28;20199;-76
2023/06/15 02:47:35;;;;;;;2.20;1.98;;;16.00;99.90;;;;;;5055937;28;20222;-76
2023/06/15 02:50:02;;;;;;;2.45;1.90;;;16.00;99.90;;;;;;5059745;28;20203;-76
2023/06/15 02:52:31;;;;;;;1.70;1.60;;;16.00;99.90;;;;;;5057135;28;20235;-76
2023/06/15 02:54:58;;;;;;;2.10;2.00;;;15.90;99.90;;;;;;5059013;28;20317;-76
2023/06/15 02:57:26;;;;;;;2.95;1.85;;;15.90;99.90;;;;;;5060531;28;20831;-77
2023/06/15 02:59:53;;;;;;;1.83;1.73;;;15.90;99.90;;;;;;5057887;28;20659;-76
2023/06/15 03:02:21;;;;;;;1.88;1.77;;;15.80;99.90;;;;;;5061928;28;20201;-76
2023/06/15 03:04:48;;;;;;;1.85;1.75;;;15.80;99.90;;;;;;5061540;28;20194;-77
2023/06/15 03:07:16;;;;;;;2.20;2.10;;;15.70;99.90;;;;;;5060320;28;20248;-77
2023/06/15 03:09:47;;;;;;;2.35;2.15;;;15.70;99.90;;;;;;5061963;28;20207;-77
2023/06/15 03:12:14;;;;;;;1.83;1.73;;;15.70;99.90;;;;;;5064079;28;20202;-77
2023/06/15 03:14:44;;;;;;;1.98;1.88;;;15.70;99.90;;;;;;5064908;28;20256;-77
2023/06/15 03:17:12;;;;;;;2.00;1.90;;;15.70;99.90;;;;;;5069694;28;20226;-76
2023/06/15 03:19:40;;;;;;;2.00;1.90;;;15.70;99.90;;;;;;5054208;28;20206;-76
2023/06/15 03:22:09;;;;;;;1.90;1.80;;;15.70;99.90;;;;;;5054672;28;20198;-78
2023/06/15 03:24:36;;;;;;;2.00;1.90;;;15.70;99.90;;;;;;5066929;28;20195;-77
2023/06/15 03:27:07;;;;;;;1.75;1.65;;;15.70;99.90;;;;;;5055674;28;20257;-76
2023/06/15 03:29:36;;;;;;;2.50;2.00;;;15.70;99.90;;;;;;5057070;28;20445;-76
2023/06/15 03:32:04;;;;;;;2.20;2.10;;;15.70;99.90;;;;;;5059006;28;20206;-76
2023/06/15 03:34:31;;;;;;;2.35;1.80;;;15.70;99.90;;;;;;5056903;28;20699;-76
2023/06/15 03:36:58;;;;;;;2.03;1.92;;;15.70;99.90;;;;;;5052658;28;20735;-76
2023/06/15 03:39:25;;;;;;;1.75;1.65;;;15.70;99.90;;;;;;5058549;28;20742;-77
2023/06/15 03:41:52;;;;;;;1.80;1.70;;;15.70;99.90;;;;;;5056640;28;20191;-76
2023/06/15 03:44:21;;;;;;;2.10;2.00;;;15.70;99.90;;;;;;5055096;28;20234;-76
2023/06/15 03:46:48;;;;;;;2.00;1.90;;;15.70;99.90;;;;;;5060743;28;20219;-76
2023/06/15 03:49:15;;;;;;;1.95;1.85;;;15.70;99.90;;;;;;5056339;28;20633;-76
2023/06/15 03:51:42;;;;;;;1.90;1.80;;;15.70;99.90;;;;;;5055990;28;20199;-76
2023/06/15 03:54:09;;;;;;;1.90;1.80;;;15.70;99.90;;;;;;5056815;28;20207;-76
2023/06/15 03:56:36;;;;;;;2.17;2.08;;;15.60;99.90;;;;;;5057224;28;20670;-76
2023/06/15 03:59:03;;;;;;;2.17;2.08;;;15.60;99.90;;;;;;5058139;28;20206;-76
2023/06/15 04:01:32;;;;;;;2.13;2.03;;;15.60;99.90;;;;;;5053770;28;20293;-76
2023/06/15 04:04:00;;;;;;;2.30;2.10;;;15.70;99.90;;;;;;5055740;28;20257;-76
2023/06/15 04:06:26;;;;;;;2.13;2.03;;;15.70;99.90;;;;;;5056288;28;20222;-75
2023/06/15 04:08:53;;;;;;;1.67;1.58;;;15.70;99.90;;;;;;5058189;28;20199;-77
2023/06/15 04:11:20;;;;;;;2.00;1.90;;;15.70;99.90;;;;;;5055215;28;20284;-77
2023/06/15 04:13:47;;;;;;;2.47;2.00;;;15.80;99.90;;;;;;5053179;28;20271;-76
2023/06/15 04:16:17;;;;;;;1.90;1.80;;;15.80;99.90;;;;;;5049820;28;20250;-76
2023/06/15 04:18:46;;;;;;;2.35;2.15;;;15.90;99.90;;;;;;5054641;28;20260;-76
2023/06/15 04:21:12;;;;;;;2.50;2.30;;;15.90;99.90;;;;;;5056549;28;20906;-76
2023/06/15 04:23:43;;;;;;;1.95;1.85;;;15.90;99.90;;;;;;5053950;28;20289;-76
2023/06/15 04:26:10;;;;;;;2.10;2.00;;;16.00;99.90;;;;;;5054278;28;20414;-77
2023/06/15 04:28:37;;;;;;;2.20;2.10;;;16.00;99.90;;;;;;5056224;28;20402;-76
2023/06/15 04:31:09;;;;;;;2.90;2.10;;;16.10;99.90;;;;;;5053949;28;20669;-77
2023/06/15 04:33:41;;;;;;;2.83;2.42;;;16.10;99.90;;;;;;5051646;28;20211;-76
2023/06/15 04:36:12;;;;;;;2.10;2.00;;;16.20;99.90;;;;;;5054389;28;20229;-77
2023/06/15 04:38:39;;;;;;;2.13;2.03;;;16.20;99.90;;;;;;5058983;28;20222;-76
2023/06/15 04:41:07;;;;;;;2.03;1.92;;;16.30;99.90;;;;;;5055206;28;20201;-77
2023/06/15 04:43:35;;;;;;;1.80;1.70;;;16.30;99.90;;;;;;5058085;28;20198;-77
2023/06/15 04:46:02;;;;;;;2.00;1.90;;;16.40;99.90;;;;;;5055003;28;20289;-76
2023/06/15 04:48:29;;;;;;;2.28;2.17;;;16.50;99.90;;;;;;5055736;28;20383;-76
2023/06/15 04:50:56;;;;;;;2.10;2.00;;;16.50;99.90;;;;;;5053062;28;20285;-76
2023/06/15 04:53:24;;;;;;;2.20;2.10;;;16.60;99.90;;;;;;5051258;28;20735;-75
2023/06/15 04:55:52;;;;;;;2.40;2.20;;;16.70;99.90;;;;;;5055705;28;20283;-77
2023/06/15 04:58:19;;;;;;;2.30;2.20;;;16.80;99.90;;;;;;5052668;28;20229;-76
2023/06/15 05:00:46;;;;;;;1.90;1.80;;;16.80;99.90;;;;;;5051768;28;20206;-76
2023/06/15 05:03:13;;;;;;;2.53;2.33;;;17.10;99.90;;;;;;5057342;28;20206;-77
2023/06/15 05:05:40;;;;;;;3.45;2.65;;;17.40;99.90;;;;;;5059318;28;20285;-76
2023/06/15 05:08:07;;;;;;;3.28;2.90;;;17.90;99.90;;;;;;5059518;28;20228;-76
2023/06/15 05:10:35;;;;;;;4.80;3.25;;;18.00;99.90;;;;;;5056141;28;20776;-77
2023/06/15 05:13:03;;;;;;;4.25;3.00;;;18.10;99.90;;;;;;5056286;28;20665;-75
2023/06/15 05:15:30;;;;;;;3.38;3.05;;;18.30;99.90;;;;;;5063081;28;20214;-77
2023/06/15 05:17:57;;;;;;;2.92;2.72;;;18.30;99.90;;;;;;5062630;28;20223;-77
2023/06/15 05:20:24;;;;;;;2.75;2.55;;;18.10;99.90;;;;;;5052701;28;20194;-76
2023/06/15 05:22:51;;;;;;;3.85;2.97;;;18.00;99.90;;;;;;5054629;28;20511;-76
2023/06/15 05:25:19;;;;;;;2.90;2.70;;;18.00;99.90;;;;;;5055830;28;20203;-76
2023/06/15 05:27:48;;;;;;;3.20;2.90;;;18.00;99.90;;;;;;5050580;28;20570;-76
2023/06/15 05:30:15;;;;;;;2.88;2.67;;;18.10;99.90;;;;;;5054672;28;20515;-76
2023/06/15 05:32:42;;;;;;;2.83;2.60;;;18.30;99.90;;;;;;5050114;28;20640;-76
2023/06/15 05:35:10;;;;;;;2.80;2.60;;;18.40;99.90;;;;;;5052993;28;20260;-77
2023/06/15 05:37:37;;;;;;;3.78;3.20;;;18.60;99.90;;;;;;5055873;28;20222;-77
2023/06/15 05:40:05;;;;;;;4.72;3.75;;;18.80;99.90;;;;;;5055844;28;20284;-77
2023/06/15 05:42:32;;;;;;;3.65;3.35;;;19.00;99.90;;;;;;5058808;28;20206;-77
2023/06/15 05:45:01;;;;;;;5.35;3.45;;;19.00;99.90;;;;;;5055237;28;20689;-76
2023/06/15 05:47:28;;;;;;;5.70;3.90;;;19.10;99.90;;;;;;5054770;28;20310;-76
2023/06/15 05:49:54;;;;;;;4.70;4.00;;;19.20;99.90;;;;;;5054520;28;20824;-77
2023/06/15 05:52:21;;;;;;;4.55;4.00;;;19.20;99.90;;;;;;5054161;28;20937;-76
2023/06/15 05:54:49;;;;;;;4.40;4.00;;;19.30;99.90;;;;;;5052381;28;20272;-76
2023/06/15 05:57:16;;;;;;;7.85;4.75;;;19.40;99.90;;;;;;5049169;28;20215;-76
2023/06/15 05:59:46;;;;;;;7.90;4.53;;;19.40;99.90;;;;;;5048807;28;20562;-78
2023/06/15 06:02:14;;;;;;;5.40;4.30;;;19.50;99.90;;;;;;5056608;28;20202;-76
2023/06/15 06:04:41;;;;;;;3.63;3.33;;;19.60;99.90;;;;;;5057318;28;20643;-76
2023/06/15 06:07:10;;;;;;;4.43;4.03;;;19.60;99.90;;;;;;5052846;28;20309;-76
2023/06/15 06:09:37;;;;;;;4.50;4.10;;;19.70;99.90;;;;;;5056496;28;20202;-76
2023/06/15 06:12:06;;;;;;;4.00;3.70;;;19.80;99.90;;;;;;5053617;28;20199;-76
2023/06/15 06:14:33;;;;;;;4.43;4.13;;;19.80;99.90;;;;;;5054883;28;20724;-77
2023/06/15 06:17:00;;;;;;;4.03;3.72;;;20.00;99.90;;;;;;5058351;28;20227;-77
2023/06/15 06:19:28;;;;;;;4.22;3.92;;;20.20;99.90;;;;;;5055162;28;20308;-76
2023/06/15 06:21:55;;;;;;;4.13;3.72;;;20.20;99.90;;;;;;5057131;28;20267;-77
2023/06/15 06:24:22;;;;;;;3.80;3.50;;;20.20;99.90;;;;;;5059191;28;20639;-77
2023/06/15 06:26:49;;;;;;;4.07;3.78;;;20.60;99.90;;;;;;5059664;28;20568;-78
2023/06/15 06:29:16;;;;;;;4.65;4.35;;;21.00;99.90;;;;;;5055348;28;20671;-77
2023/06/15 06:31:43;;;;;;;5.25;4.25;;;21.00;99.90;;;;;;5057714;28;20238;-77
2023/06/15 06:34:10;;;;;;;4.03;3.72;;;21.00;99.90;;;;;;5055126;28;20201;-77
2023/06/15 06:36:39;;;;;;;4.72;4.22;;;21.10;99.90;;;;;;5051586;28;20267;-78
2023/06/15 06:39:06;;;;;;;4.57;4.18;;;21.20;99.90;;;;;;5054150;28;20454;-76
2023/06/15 06:41:33;;;;;;;4.30;3.90;;;21.20;99.90;;;;;;5051604;28;20322;-77
2023/06/15 06:44:00;;;;;;;4.70;3.88;;;21.10;99.90;;;;;;5055377;28;20433;-76
2023/06/15 06:46:27;;;;;;;4.15;3.85;;;21.00;99.90;;;;;;5054061;28;20222;-76
2023/06/15 06:48:54;;;;;;;4.03;3.63;;;21.10;99.90;;;;;;5052308;28;20664;-78
2023/06/15 06:51:21;;;;;;;3.85;3.55;;;21.20;99.90;;;;;;5049873;28;20248;-77
2023/06/15 06:53:49;;;;;;;3.95;3.65;;;21.20;99.90;;;;;;5049939;28;20286;-77
2023/06/15 06:56:16;;;;;;;4.15;3.75;;;21.30;99.90;;;;;;5054608;28;20668;-77
2023/06/15 06:58:43;;;;;;;4.28;3.88;;;21.30;99.90;;;;;;5057129;28;20198;-76
2023/06/15 07:01:10;;;;;;;4.68;3.95;;;21.40;99.90;;;;;;5060711;28;20337;-77
2023/06/15 07:03:39;;;;;;;3.75;3.45;;;21.40;99.90;;;;;;5057601;28;20257;-75
2023/06/15 07:06:06;;;;;;;3.95;3.65;;;21.60;99.90;;;;;;5049572;28;20201;-77
2023/06/15 07:08:32;;;;;;;4.60;3.60;;;21.70;99.90;;;;;;5064371;28;20242;-76
2023/06/15 07:11:01;;;;;;;4.13;3.72;;;21.70;99.90;;;;;;5062960;28;20638;-76
2023/06/15 07:13:28;;;;;;;4.07;3.70;;;21.80;99.90;;;;;;5057610;28;20277;-76
2023/06/15 07:15:57;;;;;;;6.20;3.67;;;22.00;99.90;;;;;;5055666;28;20201;-78
2023/06/15 07:18:25;;;;;;;6.15;3.42;;;22.20;99.90;;;;;;5056146;28;20235;-76
2023/06/15 07:20:54;;;;;;;4.25;3.90;;;22.20;99.90;;;;;;5054514;28;20237;-78
2023/06/15 07:23:21;;;;;;;3.38;3.17;;;22.30;99.90;;;;;;5058818;28;20212;-76
2023/06/15 07:25:48;;;;;;;3.33;3.13;;;22.40;99.90;;;;;;5055653;28;20206;-78
2023/06/15 07:28:17;;;;;;;3.88;3.58;;;22.60;99.90;;;;;;5039419;28;20304;-76
2023/06/15 07:30:46;;;;;;;3.90;3.60;;;22.70;99.90;;;;;;5053475;28;20559;-76
2023/06/15 07:33:13;;;;;;;4.10;3.80;;;22.60;99.90;;;;;;5052816;28;20670;-76
2023/06/15 07:35:40;;;;;;;4.28;3.67;;;22.40;99.90;;;;;;5057753;28;20255;-77
2023/06/15 07:38:07;;;;;;;4.05;3.75;;;22.30;99.90;;;;;;5053732;28;20246;-76
2023/06/15 07:40:34;;;;;;;4.13;3.63;;;22.20;99.90;;;;;;5053856;28;20213;-76
2023/06/15 07:43:01;;;;;;;5.00;4.60;;;22.10;99.90;;;;;;5052076;28;20664;-77
2023/06/15 07:45:29;;;;;;;4.07;3.78;;;22.00;99.90;;;;;;5054501;28;20256;-77
2023/06/15 07:47:56;;;;;;;3.88;3.58;;;22.00;99.90;;;;;;5051794;28;20221;-77
2023/06/15 07:50:23;;;;;;;3.65;3.35;;;22.20;99.90;;;;;;5058619;28;20289;-77
2023/06/15 07:52:51;;;;;;;4.07;3.78;;;22.50;99.90;;;;;;5051367;28;20252;-77
2023/06/15 07:55:18;;;;;;;3.95;3.65;;;22.60;99.90;;;;;;5051918;28;20203;-75
2023/06/15 07:57:45;;;;;;;3.58;3.33;;;22.70;99.90;;;;;;5056765;28;20237;-76
2023/06/15 08:00:13;;;;;;;4.00;3.70;;;22.80;99.90;;;;;;5059257;28;20462;-76
2023/06/15 08:02:41;;;;;;;4.38;3.97;;;22.70;99.90;;;;;;5050703;28;20294;-77
2023/06/15 08:05:09;;;;;;;4.13;3.83;;;22.60;99.90;;;;;;5054249;28;20233;-77
2023/06/15 08:07:36;;;;;;;3.70;3.40;;;22.60;99.90;;;;;;5051027;28;20249;-75
2023/06/15 08:10:03;;;;;;;4.07;3.72;;;22.70;99.90;;;;;;5053359;28;20911;-77
2023/06/15 08:12:30;;;;;;;3.78;3.47;;;22.80;99.90;;;;;;5057659;28;20264;-78
2023/06/15 08:14:57;;;;;;;3.92;3.50;;;22.80;99.90;;;;;;5053805;28;20236;-77
2023/06/15 08:17:26;;;;;;;3.78;3.47;;;22.80;99.90;;;;;;5053178;28;20305;-77
2023/06/15 08:19:54;;;;;;;4.00;3.60;;;22.90;99.90;;;;;;5050928;28;20203;-78
2023/06/15 08:22:21;;;;;;;3.90;3.60;;;23.00;99.90;;;;;;5051566;28;20648;-76
2023/06/15 08:24:48;;;;;;;4.00;3.38;;;23.40;99.90;;;;;;5050901;28;20424;-76
2023/06/15 08:27:15;;;;;;;3.97;3.65;;;23.40;99.90;;;;;;5055469;28;20405;-77
2023/06/15 08:29:44;;;;;;;4.68;4.28;;;23.50;99.90;;;;;;5054476;28;20560;-77
2023/06/15 08:32:13;;;;;;;4.22;3.90;;;23.40;99.90;;;;;;5052219;28;20268;-77
2023/06/15 08:34:41;;;;;;;4.47;4.07;;;23.30;99.90;;;;;;5057574;28;20267;-78
2023/06/15 08:37:11;;;;;;;5.07;3.28;;;23.40;99.90;;;;;;5049548;28;20294;-78
2023/06/15 08:39:38;;;;;;;3.60;3.30;;;23.60;99.90;;;;;;5056170;28;20251;-77
2023/06/15 08:42:07;;;;;;;4.05;3.75;;;23.90;99.90;;;;;;5057443;28;20206;-76
2023/06/15 08:44:34;;;;;;;3.33;3.13;;;24.00;99.90;;;;;;5048509;28;20206;-77
2023/06/15 08:47:03;;;;;;;4.50;4.10;;;24.20;99.90;;;;;;5054185;28;20315;-78
2023/06/15 08:49:31;;;;;;;4.25;3.40;;;24.30;99.90;;;;;;5053885;28;20249;-78
2023/06/15 08:51:59;;;;;;;4.78;4.07;;;24.40;99.90;;;;;;5056449;28;20217;-77
2023/06/15 08:54:31;;;;;;;4.85;3.65;;;24.50;99.90;;;;;;5054262;28;20206;-79
2023/06/15 08:56:58;;;;;;;4.03;3.70;;;24.50;99.90;;;;;;5058596;28;20729;-78
2023/06/15 08:59:26;;;;;;;18.20;7.80;;;24.50;99.90;;;;;;5051269;28;20255;-78
2023/06/15 09:01:55;;;;;;;5.30;4.30;;;24.60;99.90;;;;;;5057601;28;20234;-78
2023/06/15 09:04:22;;;;;;;3.80;3.50;;;24.60;99.90;;;;;;5053614;28;20211;-77
2023/06/15 09:06:51;;;;;;;4.60;3.58;;;24.50;99.90;;;;;;5051785;28;20217;-77
2023/06/15 09:09:21;;;;;;;4.30;3.90;;;24.70;99.90;;;;;;5054077;28;20576;-77
2023/06/15 09:11:49;;;;;;;3.75;3.40;;;24.70;99.90;;;;;;5053376;28;20210;-77
2023/06/15 09:14:16;;;;;;;4.75;4.05;;;24.60;99.90;;;;;;5052909;28;20285;-77
2023/06/15 09:16:43;;;;;;;6.35;4.82;;;24.60;99.90;;;;;;5052979;28;20223;-76
2023/06/15 09:19:11;;;;;;;4.10;3.70;;;24.70;99.90;;;;;;5049791;28;20238;-77
2023/06/15 09:21:42;;;;;;;4.15;3.75;;;24.90;99.90;;;;;;5051515;28;20278;-78
2023/06/15 09:24:10;;;;;;;4.78;3.38;;;24.90;99.90;;;;;;5052091;28;20226;-77
2023/06/15 09:26:40;;;;;;;3.50;3.20;;;24.90;99.90;;;;;;5052408;28;20254;-78
2023/06/15 09:29:12;;;;;;;28.17;11.18;;;25.00;99.90;;;;;;5049963;28;20198;-78
2023/06/15 09:31:40;;;;;;;14.90;6.65;;;25.00;99.90;;;;;;5050931;28;20207;-77
2023/06/15 09:34:09;;;;;;;7.28;4.82;;;24.80;99.90;;;;;;5048304;28;20248;-78
2023/06/15 09:36:41;;;;;;;5.20;3.53;;;24.70;99.90;;;;;;5051488;28;20226;-78
2023/06/15 09:39:10;;;;;;;3.83;3.53;;;24.80;99.90;;;;;;5053356;28;20225;-77
2023/06/15 09:41:37;;;;;;;3.90;3.60;;;25.10;99.90;;;;;;5056484;28;20203;-78
2023/06/15 09:44:09;;;;;;;4.18;3.78;;;25.40;99.90;;;;;;5051752;28;20236;-78
2023/06/15 09:46:38;;;;;;;3.55;3.30;;;25.60;99.90;;;;;;5049215;28;20682;-77
2023/06/15 09:49:20;;;;;;;5.25;4.28;;;25.90;99.90;;;;;;5052061;28;20313;-78
2023/06/15 09:51:49;;;;;;;6.18;3.58;;;26.00;99.90;;;;;;5050686;28;20244;-79
2023/06/15 09:54:18;;;;;;;4.85;3.30;;;26.00;99.90;;;;;;5055551;28;20206;-77
2023/06/15 09:56:49;;;;;;;4.03;3.70;;;25.90;99.90;;;;;;5052067;28;20218;-77
2023/06/15 09:59:16;;;;;;;3.40;3.10;;;25.90;99.90;;;;;;5053679;28;20217;-77
2023/06/15 10:01:47;;;;;;;4.07;3.70;;;26.10;99.90;;;;;;5054213;28;20304;-78
2023/06/15 10:04:15;;;;;;;4.72;3.22;;;26.40;99.90;;;;;;5051074;28;20199;-78
2023/06/15 10:06:45;;;;;;;3.60;3.28;;;26.60;99.90;;;;;;5047375;28;20673;-78
2023/06/15 10:09:16;;;;;;;3.85;3.13;;;26.40;99.90;;;;;;5054468;28;20199;-77
2023/06/15 10:11:46;;;;;;;3.75;3.45;;;26.40;99.90;;;;;;5049099;28;20195;-78
2023/06/15 10:14:19;;;;;;;9.38;3.63;;;26.50;99.90;;;;;;5056110;28;20301;-78
2023/06/15 10:16:55;;;;;;;3.78;3.03;;;26.40;99.90;;;;;;5052034;28;20296;-77
2023/06/15 10:19:25;;;;;;;3.50;3.20;;;26.30;99.90;;;;;;5047055;28;20234;-78
2023/06/15 10:21:54;;;;;;;3.70;3.40;;;26.40;99.90;;;;;;5052530;28;20203;-76
2023/06/15 10:24:23;;;;;;;4.10;3.80;;;26.60;99.90;;;;;;5053413;28;20198;-77
2023/06/15 10:26:50;;;;;;;3.78;3.47;;;26.70;99.90;;;;;;5055140;28;20402;-78
2023/06/15 10:29:22;;;;;;;3.72;3.42;;;26.70;99.90;;;;;;5056110;28;20234;-78
2023/06/15 10:32:01;;;;;;;3.30;3.00;;;26.70;99.90;;;;;;5049980;28;20207;-77
2023/06/15 10:34:38;;;;;;;3.35;3.15;;;26.70;99.90;;;;;;5051504;28;20663;-78
2023/06/15 10:37:11;;;;;;;3.03;2.83;;;26.80;99.90;;;;;;5050443;28;20227;-78
2023/06/15 10:39:44;;;;;;;3.10;2.80;;;26.90;99.90;;;;;;5051951;28;20206;-77
2023/06/15 10:42:14;;;;;;;3.28;3.08;;;27.20;99.90;;;;;;5051822;28;20672;-79
2023/06/15 10:44:41;;;;;;;3.30;3.00;;;27.40;99.90;;;;;;5056174;28;20198;-78
2023/06/15 10:47:11;;;;;;;3.75;3.35;;;27.50;99.90;;;;;;5049434;28;20296;-78
2023/06/15 10:49:48;;;;;;;3.30;3.00;;;27.60;99.90;;;;;;5061369;28;20194;-78
2023/06/15 10:52:15;;;;;;;3.13;2.92;;;27.60;99.90;;;;;;5058427;28;20237;-79
2023/06/15 10:54:42;;;;;;;3.17;2.97;;;27.60;99.90;;;;;;5060951;28;20264;-79
2023/06/15 10:57:09;;;;;;;3.40;3.10;;;27.60;99.90;;;;;;5059736;28;20249;-78
2023/06/15 10:59:41;;;;;;;4.43;3.22;;;27.90;99.90;;;;;;5053697;28;20202;-77
2023/06/15 11:02:59;;;;;;;3.05;2.75;;;28.00;99.90;;;;;;5051234;28;20206;-78
2023/06/15 11:05:40;;;;;;;3.20;2.90;;;27.80;99.90;;;;;;4982668;28;20216;-79
2023/06/15 11:08:17;;;;;;;3.50;3.20;;;27.80;99.90;;;;;;4981533;28;20951;-78
2023/06/15 11:10:44;;;;;;;3.20;3.00;;;27.70;99.90;;;;;;5034221;28;20206;-78
2023/06/15 11:13:11;;;;;;;3.47;2.90;;;27.50;99.90;;;;;;5053170;28;20298;-78
2023/06/15 11:15:40;;;;;;;3.28;2.97;;;27.10;99.90;;;;;;5056968;28;20795;-78
2023/06/15 11:18:13;;;;;;;3.08;2.50;;;26.90;99.90;;;;;;5057844;28;20218;-78
2023/06/15 11:20:59;;;;;;;2.50;2.30;;;26.80;99.90;;;;;;5058795;28;20586;-79
2023/06/15 11:23:29;;;;;;;2.90;2.70;;;26.70;99.90;;;;;;5057362;28;20218;-81
2023/06/15 11:25:57;;;;;;;2.78;2.58;;;26.70;99.90;;;;;;5056251;28;20209;-79
2023/06/15 11:28:25;;;;;;;3.58;2.30;;;26.50;99.90;;;;;;5053107;28;20222;-78
2023/06/15 11:30:53;;;;;;;2.70;2.50;;;26.50;99.90;;;;;;5053171;28;20305;-78
2023/06/15 11:33:28;;;;;;;3.15;2.22;;;26.40;99.90;;;;;;5060410;28;20202;-80
2023/06/15 11:35:56;;;;;;;2.70;2.50;;;26.30;99.90;;;;;;5046718;28;20289;-79
2023/06/15 11:38:27;;;;;;;2.45;2.25;;;26.20;99.90;;;;;;5053052;28;20245;-78
2023/06/15 11:41:00;;;;;;;2.42;2.25;;;26.20;99.90;;;;;;5058222;28;20265;-80
2023/06/15 11:43:32;;;;;;;2.22;2.13;;;26.30;99.90;;;;;;5056949;28;20293;-79
2023/06/15 11:45:59;;;;;;;2.08;1.98;;;26.40;99.90;;;;;;5057774;28;20202;-80
2023/06/15 11:48:28;;;;;;;2.10;2.00;;;26.50;99.90;;;;;;5057923;28;20881;-78
2023/06/15 11:50:56;;;;;;;2.10;2.00;;;26.60;99.90;;;;;;5056786;28;20230;-78
2023/06/15 11:53:23;;;;;;;2.35;1.90;;;26.70;99.90;;;;;;5055882;28;20248;-77
2023/06/15 11:55:50;;;;;;;2.25;2.03;;;26.70;99.90;;;;;;5058208;28;20695;-78
2023/06/15 11:58:17;;;;;;;2.55;2.35;;;26.70;99.90;;;;;;5054166;28;20311;-78
2023/06/15 12:00:45;;;;;;;2.47;2.28;;;26.70;99.90;;;;;;5055279;28;20667;-77
2023/06/15 12:03:12;;;;;;;2.47;2.28;;;26.60;99.90;;;;;;5048406;28;20256;-79
2023/06/15 12:05:41;;;;;;;3.50;2.70;;;26.90;99.90;;;;;;5052184;28;20257;-78
2023/06/15 12:08:08;;;;;;;2.97;2.78;;;27.30;99.90;;;;;;5054072;28;20299;-80
2023/06/15 12:10:37;;;;;;;3.58;3.13;;;27.90;99.90;;;;;;5053844;28;20267;-79
2023/06/15 12:13:04;;;;;;;2.92;2.70;;;28.20;99.90;;;;;;5058237;28;20206;-79
2023/06/15 12:15:32;;;;;;;2.75;2.55;;;28.40;99.90;;;;;;5053205;28;20298;-77
2023/06/15 12:17:59;;;;;;;3.20;2.60;;;28.20;99.90;;;;;;5055197;28;20222;-78
2023/06/15 12:20:31;;;;;;;3.78;2.75;;;28.20;99.90;;;;;;5053819;28;20644;-78
2023/06/15 12:22:59;;;;;;;3.03;2.75;;;28.30;99.90;;;;;;5051146;28;20230;-79
2023/06/15 12:25:44;;;;;;;2.80;2.60;;;28.40;99.90;;;;;;5051762;28;20202;-79
2023/06/15 12:28:15;;;;;;;3.97;2.38;;;28.40;99.90;;;;;;5049294;28;20989;-78
2023/06/15 12:30:43;;;;;;;2.63;2.42;;;28.80;99.90;;;;;;5052305;28;20312;-77
2023/06/15 12:33:25;;;;;;;2.88;2.67;;;28.90;99.90;;;;;;5048180;28;20213;-77
2023/06/15 12:35:57;;;;;;;2.78;2.33;;;28.60;99.90;;;;;;5049576;28;20205;-76
2023/06/15 12:38:26;;;;;;;2.70;2.30;;;28.30;99.90;;;;;;5036625;28;20901;-77
2023/06/15 12:40:55;;;;;;;2.70;2.50;;;27.90;99.90;;;;;;5053251;28;20694;-79
2023/06/15 12:43:25;;;;;;;2.13;1.92;;;27.40;99.90;;;;;;5051255;28;20235;-79
2023/06/15 12:45:52;;;;;;;2.58;2.38;;;27.10;99.90;;;;;;5056012;28;20203;-79
2023/06/15 12:48:20;;;;;;;3.40;2.92;;;26.70;99.90;;;;;;5056937;28;20225;-78
2023/06/15 12:50:48;;;;;;;2.83;2.50;;;26.30;99.90;;;;;;5056285;28;20230;-80
2023/06/15 12:53:15;;;;;;;3.00;2.47;;;26.00;99.90;;;;;;5054506;28;20206;-79